Jewell, OH (43530)

11:49 AM EST on February 06, 2016 (GMT -0500)
Defiance Memorial | | Change Station
CLOSE
Current Station
Airport
Location: Defiance,
Elevation: 705 ft
Nearby Weather Stations

Elev 705 ft 41.34 °N, 84.43 °W | Updated 56 minutes ago

Partly Cloudy
Partly Cloudy
30 °F
Feels Like 22 °F
N
9
Wind Variable Wind from SW

Today
High -- | Low -- °F
--% Chance of Precip.
Yesterday
High -- | Low -- °F
Precip. -- in
Pressure 30.34 in
Visibility 6.0 miles
Clouds Few 1100 ft
Windchill 22 °F
Dew Point 23 °F
Humidity 75%
Rainfall 0.00 in
Snow Depth Not available.
7:43 AM 5:59 PM
Waning Crescent, 5% visible
METAR KDFI 061553Z AUTO 22008KT 6SM HZ FEW011 M01/M05 A3031 RMK AO2 SLP273 T10111050
Pressure 30.34 in
Visibility 6.0 miles
Clouds Few 1100 ft
Windchill 22 °F
Dew Point 23 °F
Humidity 75%
Rainfall 0.00 in
Snow Depth Not available.
7:43 AM 5:59 PM
Waning Crescent, 5% visible
METAR KDFI 061553Z AUTO 22008KT 6SM HZ FEW011 M01/M05 A3031 RMK AO2 SLP273 T10111050

10-Day Weather Forecast

Almanac

Astronomy

Feb. 06, 2016 Rise Set
Actual Time
Civil Twilight
Nautical Twilight
Astronomical Twilight
Moon
Length of Visible Light
Length of Day
Tomorrow will be .
, % of the Moon is Illuminated

Today's Extremes

State Highs State Lows

Community

WunderPhotos

Upload Photos

1,891,017 photos uploaded!

WunderBlog® & News

Nearby

Air Quality

  Air Quality AQ Index Pollutant
Not available.

Snow Depth

Station Depth Elevation

Earthquake Activity

City Distance Mag. Time & Date
Minimum magnitude displayed is 2.5.

Coastal Water Temperatures

Place Temperature

Stations

Nearby Weather Stations

Station Location Temp. Windchill Dew Point Humidity Wind Precip. Elev Updated Type
                   

Watches & Warnings

There are currently no watches in effect.